OEBA/ABT METAR and TAF weather

Enter ICAO airport designator
Station Type Date Time Source
OEBA METAR 2022/11/27 07:00 UTC NOAA

OEBA 270700Z 15005KT CAVOK 20/10 Q1022 NOSIG


Station Type Date Time Source
OEBA Decoded METAR 2022/11/27 07:00 UTC NOAA

Al Baha, Saudi Arabia (OEBA) 20-18N 041-38E 1662M
Nov 27, 2022 - 02:00 AM EST / 2022.11.27 0700 UTC
Wind: from the SSE (150 degrees) at 6 MPH (5 KT):0
Visibility: greater than 7 mile(s):0
Temperature: 68 F (20 C)
Dew Point: 50 F (10 C)
Relative Humidity: 52%
Pressure (altimeter): 30.18 in. Hg (1022 hPa)
ob: OEBA 270700Z 15005KT CAVOK 20/10 Q1022 NOSIG
cycle: 7

Station Type Date Time Source
OEBA TAF 2022/11/26 12:21 UTC NOAA

TAF OEBA 261100Z 2612/2718 13012KT 7000 FEW030
TEMPO 2612/2620 FEW025CB SCT030
BECMG 2620/2622 VRB03KT
BECMG 2706/2708 12012KT

Example: see airport list